Home > Products > Valid Products > TAF

000
FTUS43 KTOP 282300
TAFTOP
TAF
KTOP 282331Z 2900/2924 17010KT P6SM SCT060 BKN150
     FM290300 16006KT P6SM VCTS SCT050CB BKN120
      TEMPO 2906/2910 4SM -TSRA SCT015 OVC040CB
     FM291400 21009KT P6SM VCTS SCT035CB BKN110=



000
FTUS43 KTOP 281700
TAFTOP
TAF
KTOP 281720Z 2818/2918 19010KT P6SM SCT060 SCT150
     FM290300 19006KT P6SM VCTS BKN050CB
      TEMPO 2905/2909 4SM -TSRA OVC040CB=



000
FTUS43 KTOP 281500 AAA
TAFTOP
TAF AMD
KTOP 281507Z 2815/2912 17008KT P6SM SCT150
     FM290000 17006KT P6SM VCTS BKN060CB
     FM290600 18006KT P6SM VCTS BKN050CB
      TEMPO 2908/2912 4SM -TSRA OVC040CB=



000
FTUS43 KTOP 281100
TAFTOP
TAF
KTOP 281137Z 2812/2912 13007KT P6SM VCTS SCT060CB BKN090
     FM281600 17008KT P6SM FEW060 BKN120
     FM290000 17006KT P6SM VCTS BKN060CB
     FM290600 18006KT P6SM VCTS BKN050CB
      TEMPO 2908/2912 4SM -TSRA OVC040CB=



000
FTUS43 KTOP 280500
TAFTOP
TAF
KTOP 280520Z 2806/2906 09007KT P6SM FEW080 BKN130
     FM280900 11010KT P6SM VCTS BKN080CB
     FM281300 13008KT P6SM FEW060 BKN120=



000
FTUS43 KTOP 272300
TAFTOP
TAF
KTOP 272334Z 2800/2824 07009KT P6SM FEW060 BKN120
     FM280900 12010KT P6SM VCTS BKN080CB
     FM281300 16008KT P6SM FEW060 BKN120=



000
FTUS43 KTOP 271700
TAFTOP
TAF
KTOP 271735Z 2718/2818 09010KT P6SM SKC
     FM280200 15010KT P6SM VCTS SCT040CB BKN080
     FM280900 15008KT P6SM SCT250=



000
FTUS43 KTOP 271100
TAFTOP
TAF
KTOP 271128Z 2712/2812 13003KT P6SM SCT060 BKN200
     FM271500 13004KT P6SM VCTS SCT010CB BKN060
     FM271800 11006KT P6SM BKN070 OVC200=



000
FTUS43 KTOP 270500
TAFTOP
TAF
KTOP 270520Z 2706/2806 09005KT P6SM SCT100
     FM271200 03010KT P6SM SCT070 BKN200=



000
FTUS43 KTOP 262300 AAA
TAFTOP
TAF AMD
KTOP 262359Z 2700/2724 03008KT P6SM VCTS BKN080CB
      TEMPO 2700/2701 VRB35KT 2SM TSRA BKN020CB
     FM270200 14005KT P6SM SCT080=



000
FTUS43 KTOP 262300
TAFTOP
TAF
KTOP 262327Z 2700/2724 03008KT P6SM VCTS BKN080CB
      TEMPO 2700/2701 VRB25KT 5SM -TSRA BKN080CB
     FM270200 14005KT P6SM SCT080=



000
FTUS43 KTOP 262300 AAA
TAFTOP
TAF AMD
KTOP 262305Z 2623/2718 03008KT P6SM VCTS BKN080CB
     FM270200 14005KT P6SM SCT080=



000
FTUS43 KTOP 261700
TAFTOP
TAF
KTOP 261726Z 2618/2718 09008KT P6SM SCT070
     FM270200 14005KT P6SM SCT080=



000
FTUS43 KTOP 261200 AAA
TAFTOP
TAF AMD
KTOP 261257Z 2613/2712 01010KT P6SM FEW015 SCT100
     FM261400 06010KT P6SM VCTS BKN070CB
     FM261700 10008KT P6SM SCT070
     FM270200 12003KT P6SM SCT080=



000
FTUS43 KTOP 261100
TAFTOP
TAF
KTOP 261131Z 2612/2712 01010KT P6SM FEW015 SCT100
     FM261700 10008KT P6SM SCT070
     FM270200 12003KT P6SM SCT080=



000
FTUS43 KTOP 261000 AAA
TAFTOP
TAF AMD
KTOP 261032Z 2611/2706 34012KT P6SM SCT100
     FM261500 05007KT P6SM SCT100
     FM261800 13008KT P6SM SCT080=



    US Dept of Commerce
    National Oceanic and Atmospheric Administration
    National Weather Service
    1325 East West Highway
    Silver Spring, MD 20910
    Page Author: NWS Internet Services Team
Disclaimer
Information Quality
Credits
Glossary
Privacy Policy
Freedom of Information Act (FOIA)
About Us
Career Opportunities